Decoded Metar for KBBG ( in _UNIDENTIFIED) (IATA:N/A) | Meteo·Mobile Aviation Weather
aviador You're here:

KBBG Decoded Metar

in _UNIDENTIFIED
Report Time2018-09-23 18:45:00
UTC Time2018-09-23 19:38:49
Flight Rules mvfr MVFR
Wind110° at 05 kt
W.Decomp.*RWY 14: 4.2 kt HW 2.6 kt LCW
W.Rank110° ranks 9
Current wind is below 110° avg. (7.0)
Visibility9999 m
Phenomena:N/A
Clouds:Overcast 016 Hf
Expected CloudBase > 1,200 ft AGL from Temp-Dew spread
Ceiling1,600 ft
Temp20°C (ISA +8)
Dew Point17°C (83% RH)
QNH1018 hPa
Density Alt2,283 ft
Elevation1,302 ft
Report Wrong Elevation
Raw Report
KBBG 231845Z 11005KT 10SM OVC016 20/17 A3006=

Extra information for KBBG:More info

Metar Taf Metar & Taf Last 4 Metars F.Rules Stats Wind Profile Meteogram Temp Stats Metar ALERT Operation Metar Decoded Social comments